sensor_id;sensor_type;location;lat;lon;timestamp;temperature;humidity
38464;DHT22;24243;51.956;5.902;2023-06-22T00:01:52;27.10;47.20
38464;DHT22;24243;51.956;5.902;2023-06-22T00:04:36;27.10;47.10
38464;DHT22;24243;51.956;5.902;2023-06-22T00:07:20;27.00;47.00
38464;DHT22;24243;51.956;5.902;2023-06-22T00:10:05;27.00;47.00
38464;DHT22;24243;51.956;5.902;2023-06-22T00:12:50;27.00;46.90
38464;DHT22;24243;51.956;5.902;2023-06-22T00:15:34;27.00;46.90
38464;DHT22;24243;51.956;5.902;2023-06-22T00:18:19;27.00;46.90
38464;DHT22;24243;51.956;5.902;2023-06-22T00:21:04;27.00;46.90
38464;DHT22;24243;51.956;5.902;2023-06-22T00:23:48;27.00;46.90
38464;DHT22;24243;51.956;5.902;2023-06-22T00:26:32;27.00;46.80
38464;DHT22;24243;51.956;5.902;2023-06-22T00:29:16;26.90;46.80
38464;DHT22;24243;51.956;5.902;2023-06-22T00:32:02;27.00;46.80
38464;DHT22;24243;51.956;5.902;2023-06-22T00:34:47;26.90;46.70
38464;DHT22;24243;51.956;5.902;2023-06-22T00:37:32;26.90;47.30
38464;DHT22;24243;51.956;5.902;2023-06-22T00:40:17;26.90;46.70
38464;DHT22;24243;51.956;5.902;2023-06-22T00:43:06;27.00;46.80
38464;DHT22;24243;51.956;5.902;2023-06-22T00:45:50;27.00;46.80
38464;DHT22;24243;51.956;5.902;2023-06-22T00:48:35;26.90;47.40
38464;DHT22;24243;51.956;5.902;2023-06-22T00:51:21;26.90;46.80
38464;DHT22;24243;51.956;5.902;2023-06-22T00:54:08;26.90;46.80
38464;DHT22;24243;51.956;5.902;2023-06-22T00:56:53;26.90;46.90
38464;DHT22;24243;51.956;5.902;2023-06-22T00:59:40;26.90;46.90
38464;DHT22;24243;51.956;5.902;2023-06-22T01:02:24;26.90;47.00
38464;DHT22;24243;51.956;5.902;2023-06-22T01:05:08;26.90;47.00
38464;DHT22;24243;51.956;5.902;2023-06-22T01:11:05;26.90;47.10
38464;DHT22;24243;51.956;5.902;2023-06-22T01:13:57;26.90;47.10
38464;DHT22;24243;51.956;5.902;2023-06-22T01:16:45;26.90;47.10
38464;DHT22;24243;51.956;5.902;2023-06-22T01:22:33;26.90;47.20
38464;DHT22;24243;51.956;5.902;2023-06-22T01:28:46;26.80;47.20
38464;DHT22;24243;51.956;5.902;2023-06-22T01:31:32;26.80;47.10
38464;DHT22;24243;51.956;5.902;2023-06-22T01:34:19;26.80;47.10
38464;DHT22;24243;51.956;5.902;2023-06-22T01:37:04;26.80;47.10
38464;DHT22;24243;51.956;5.902;2023-06-22T01:39:49;26.80;47.20
38464;DHT22;24243;51.956;5.902;2023-06-22T01:42:36;26.80;47.80
38464;DHT22;24243;51.956;5.902;2023-06-22T01:45:21;26.80;47.20
38464;DHT22;24243;51.956;5.902;2023-06-22T01:48:06;26.80;47.20
38464;DHT22;24243;51.956;5.902;2023-06-22T01:50:51;26.80;47.20
38464;DHT22;24243;51.956;5.902;2023-06-22T01:53:35;26.80;47.20
38464;DHT22;24243;51.956;5.902;2023-06-22T01:56:20;26.80;47.10
38464;DHT22;24243;51.956;5.902;2023-06-22T01:59:14;26.70;47.10
38464;DHT22;24243;51.956;5.902;2023-06-22T02:02:09;26.70;47.10
38464;DHT22;24243;51.956;5.902;2023-06-22T02:04:59;26.70;47.10
38464;DHT22;24243;51.956;5.902;2023-06-22T02:08:27;26.70;47.10
38464;DHT22;24243;51.956;5.902;2023-06-22T02:11:02;26.70;47.10
38464;DHT22;24243;51.956;5.902;2023-06-22T02:13:48;26.70;47.10
38464;DHT22;24243;51.956;5.902;2023-06-22T02:16:33;26.70;47.10
38464;DHT22;24243;51.956;5.902;2023-06-22T02:19:23;26.70;47.20
38464;DHT22;24243;51.956;5.902;2023-06-22T02:22:07;26.70;47.10
38464;DHT22;24243;51.956;5.902;2023-06-22T02:24:51;26.70;47.10
38464;DHT22;24243;51.956;5.902;2023-06-22T02:27:36;26.60;47.00
38464;DHT22;24243;51.956;5.902;2023-06-22T02:30:24;26.60;47.10
38464;DHT22;24243;51.956;5.902;2023-06-22T02:33:08;26.60;47.70
38464;DHT22;24243;51.956;5.902;2023-06-22T02:35:53;26.60;47.70
38464;DHT22;24243;51.956;5.902;2023-06-22T02:38:37;26.60;47.10
38464;DHT22;24243;51.956;5.902;2023-06-22T02:41:21;26.60;47.10
38464;DHT22;24243;51.956;5.902;2023-06-22T02:44:05;26.60;47.20
38464;DHT22;24243;51.956;5.902;2023-06-22T02:46:50;26.60;47.20
38464;DHT22;24243;51.956;5.902;2023-06-22T02:49:35;26.60;47.20
38464;DHT22;24243;51.956;5.902;2023-06-22T02:52:19;26.60;47.30
38464;DHT22;24243;51.956;5.902;2023-06-22T02:55:04;26.60;47.30
38464;DHT22;24243;51.956;5.902;2023-06-22T02:57:48;26.60;47.30
38464;DHT22;24243;51.956;5.902;2023-06-22T03:00:36;26.50;47.30
38464;DHT22;24243;51.956;5.902;2023-06-22T03:03:20;26.60;47.30
38464;DHT22;24243;51.956;5.902;2023-06-22T03:06:05;26.60;47.30
38464;DHT22;24243;51.956;5.902;2023-06-22T03:08:52;26.50;47.30
38464;DHT22;24243;51.956;5.902;2023-06-22T03:11:36;26.50;47.90
38464;DHT22;24243;51.956;5.902;2023-06-22T03:14:20;26.50;47.30
38464;DHT22;24243;51.956;5.902;2023-06-22T03:17:05;26.50;47.40
38464;DHT22;24243;51.956;5.902;2023-06-22T03:19:50;26.50;47.40
38464;DHT22;24243;51.956;5.902;2023-06-22T03:22:35;26.50;47.50
38464;DHT22;24243;51.956;5.902;2023-06-22T03:25:20;26.50;47.50
38464;DHT22;24243;51.956;5.902;2023-06-22T03:28:04;26.50;47.60
38464;DHT22;24243;51.956;5.902;2023-06-22T03:30:48;26.50;47.70
38464;DHT22;24243;51.956;5.902;2023-06-22T03:33:32;26.40;47.70
38464;DHT22;24243;51.956;5.902;2023-06-22T03:36:19;26.50;47.70
38464;DHT22;24243;51.956;5.902;2023-06-22T03:39:03;26.50;47.90
38464;DHT22;24243;51.956;5.902;2023-06-22T03:41:48;26.40;47.80
38464;DHT22;24243;51.956;5.902;2023-06-22T03:44:32;26.40;48.00
38464;DHT22;24243;51.956;5.902;2023-06-22T03:47:17;26.40;48.10
38464;DHT22;24243;51.956;5.902;2023-06-22T03:50:01;26.40;48.80
38464;DHT22;24243;51.956;5.902;2023-06-22T03:52:47;26.40;48.20
38464;DHT22;24243;51.956;5.902;2023-06-22T03:55:34;26.40;49.00
38464;DHT22;24243;51.956;5.902;2023-06-22T03:58:21;26.40;48.40
38464;DHT22;24243;51.956;5.902;2023-06-22T04:01:05;26.40;48.50
38464;DHT22;24243;51.956;5.902;2023-06-22T04:03:50;26.40;48.50
38464;DHT22;24243;51.956;5.902;2023-06-22T04:06:34;26.40;48.50
38464;DHT22;24243;51.956;5.902;2023-06-22T04:09:19;26.40;48.60
38464;DHT22;24243;51.956;5.902;2023-06-22T04:12:03;26.40;48.70
38464;DHT22;24243;51.956;5.902;2023-06-22T04:14:47;26.40;48.80
38464;DHT22;24243;51.956;5.902;2023-06-22T04:17:31;26.40;48.80
38464;DHT22;24243;51.956;5.902;2023-06-22T04:20:15;26.40;48.90
38464;DHT22;24243;51.956;5.902;2023-06-22T04:22:59;26.40;48.90
38464;DHT22;24243;51.956;5.902;2023-06-22T04:25:44;26.40;49.00
38464;DHT22;24243;51.956;5.902;2023-06-22T04:28:28;26.40;49.00
38464;DHT22;24243;51.956;5.902;2023-06-22T04:31:12;26.40;49.10
38464;DHT22;24243;51.956;5.902;2023-06-22T04:33:56;26.40;49.10
38464;DHT22;24243;51.956;5.902;2023-06-22T04:36:41;26.40;49.20
38464;DHT22;24243;51.956;5.902;2023-06-22T04:39:25;26.40;49.20
38464;DHT22;24243;51.956;5.902;2023-06-22T04:42:12;26.40;49.80
38464;DHT22;24243;51.956;5.902;2023-06-22T04:44:56;26.50;49.30
38464;DHT22;24243;51.956;5.902;2023-06-22T04:47:40;26.50;49.40
38464;DHT22;24243;51.956;5.902;2023-06-22T04:50:24;26.50;49.40
38464;DHT22;24243;51.956;5.902;2023-06-22T04:53:08;26.40;50.00
38464;DHT22;24243;51.956;5.902;2023-06-22T04:55:53;26.40;50.10
38464;DHT22;24243;51.956;5.902;2023-06-22T04:58:38;26.50;49.60
38464;DHT22;24243;51.956;5.902;2023-06-22T05:01:22;26.50;49.60
38464;DHT22;24243;51.956;5.902;2023-06-22T05:04:07;26.50;49.50
38464;DHT22;24243;51.956;5.902;2023-06-22T05:06:52;26.50;49.70
38464;DHT22;24243;51.956;5.902;2023-06-22T05:09:37;26.50;49.90
38464;DHT22;24243;51.956;5.902;2023-06-22T05:12:22;26.50;50.10
38464;DHT22;24243;51.956;5.902;2023-06-22T05:15:07;26.40;50.30
38464;DHT22;24243;51.956;5.902;2023-06-22T05:17:52;26.40;50.50
38464;DHT22;24243;51.956;5.902;2023-06-22T05:20:36;26.40;50.70
38464;DHT22;24243;51.956;5.902;2023-06-22T05:23:21;26.40;50.80
38464;DHT22;24243;51.956;5.902;2023-06-22T05:26:05;26.40;51.00
38464;DHT22;24243;51.956;5.902;2023-06-22T05:28:49;26.30;51.00
38464;DHT22;24243;51.956;5.902;2023-06-22T05:31:34;26.30;51.00
38464;DHT22;24243;51.956;5.902;2023-06-22T05:34:18;26.30;51.20
38464;DHT22;24243;51.956;5.902;2023-06-22T05:37:03;26.30;51.20
38464;DHT22;24243;51.956;5.902;2023-06-22T05:39:47;26.30;51.30
38464;DHT22;24243;51.956;5.902;2023-06-22T05:42:31;26.40;51.30
38464;DHT22;24243;51.956;5.902;2023-06-22T05:45:15;26.30;51.20
38464;DHT22;24243;51.956;5.902;2023-06-22T05:48:00;26.40;51.20
38464;DHT22;24243;51.956;5.902;2023-06-22T05:50:45;26.40;51.20
38464;DHT22;24243;51.956;5.902;2023-06-22T05:53:30;26.40;51.10
38464;DHT22;24243;51.956;5.902;2023-06-22T05:56:14;26.40;51.00
38464;DHT22;24243;51.956;5.902;2023-06-22T05:58:58;26.40;51.00
38464;DHT22;24243;51.956;5.902;2023-06-22T06:01:43;26.40;51.00
38464;DHT22;24243;51.956;5.902;2023-06-22T06:04:27;26.50;51.00
38464;DHT22;24243;51.956;5.902;2023-06-22T06:07:11;26.50;51.00
38464;DHT22;24243;51.956;5.902;2023-06-22T06:09:56;26.60;51.10
38464;DHT22;24243;51.956;5.902;2023-06-22T06:12:40;26.50;50.90
38464;DHT22;24243;51.956;5.902;2023-06-22T06:15:24;26.60;51.00
38464;DHT22;24243;51.956;5.902;2023-06-22T06:18:08;26.60;51.00
38464;DHT22;24243;51.956;5.902;2023-06-22T06:20:53;26.60;50.90
38464;DHT22;24243;51.956;5.902;2023-06-22T06:23:37;26.70;50.90
38464;DHT22;24243;51.956;5.902;2023-06-22T06:26:21;26.60;50.80
38464;DHT22;24243;51.956;5.902;2023-06-22T06:29:14;26.60;50.90
38464;DHT22;24243;51.956;5.902;2023-06-22T06:32:00;26.70;51.00
38464;DHT22;24243;51.956;5.902;2023-06-22T06:34:44;26.70;51.00
38464;DHT22;24243;51.956;5.902;2023-06-22T06:37:28;26.70;51.00
38464;DHT22;24243;51.956;5.902;2023-06-22T06:40:13;26.80;51.00
38464;DHT22;24243;51.956;5.902;2023-06-22T06:42:58;26.80;51.00
38464;DHT22;24243;51.956;5.902;2023-06-22T06:45:42;26.90;50.90
38464;DHT22;24243;51.956;5.902;2023-06-22T06:48:27;26.90;50.90
38464;DHT22;24243;51.956;5.902;2023-06-22T06:51:11;26.90;51.60
38464;DHT22;24243;51.956;5.902;2023-06-22T06:53:55;27.00;51.00
38464;DHT22;24243;51.956;5.902;2023-06-22T06:56:39;27.00;50.90
38464;DHT22;24243;51.956;5.902;2023-06-22T06:59:23;27.00;50.90
38464;DHT22;24243;51.956;5.902;2023-06-22T07:02:07;27.10;51.00
38464;DHT22;24243;51.956;5.902;2023-06-22T07:04:52;27.10;51.00
38464;DHT22;24243;51.956;5.902;2023-06-22T07:07:36;27.10;50.80
38464;DHT22;24243;51.956;5.902;2023-06-22T07:10:20;27.10;50.70
38464;DHT22;24243;51.956;5.902;2023-06-22T07:13:05;27.10;50.60
38464;DHT22;24243;51.956;5.902;2023-06-22T07:15:49;27.10;50.60
38464;DHT22;24243;51.956;5.902;2023-06-22T07:18:33;27.10;50.60
38464;DHT22;24243;51.956;5.902;2023-06-22T07:21:18;27.10;50.60
38464;DHT22;24243;51.956;5.902;2023-06-22T07:24:04;27.20;50.70
38464;DHT22;24243;51.956;5.902;2023-06-22T07:26:50;27.20;50.70
38464;DHT22;24243;51.956;5.902;2023-06-22T07:29:35;27.20;50.70
38464;DHT22;24243;51.956;5.902;2023-06-22T07:32:20;27.20;50.70
38464;DHT22;24243;51.956;5.902;2023-06-22T07:35:05;27.20;50.60
38464;DHT22;24243;51.956;5.902;2023-06-22T07:37:50;27.20;50.70
38464;DHT22;24243;51.956;5.902;2023-06-22T07:40:34;27.20;50.60
38464;DHT22;24243;51.956;5.902;2023-06-22T07:43:19;27.20;50.50
38464;DHT22;24243;51.956;5.902;2023-06-22T07:46:04;27.30;50.50
38464;DHT22;24243;51.956;5.902;2023-06-22T07:48:48;27.20;50.50
38464;DHT22;24243;51.956;5.902;2023-06-22T07:51:32;27.30;50.50
38464;DHT22;24243;51.956;5.902;2023-06-22T07:54:16;27.20;50.40
38464;DHT22;24243;51.956;5.902;2023-06-22T07:57:01;27.20;50.40
38464;DHT22;24243;51.956;5.902;2023-06-22T07:59:45;27.20;50.50
38464;DHT22;24243;51.956;5.902;2023-06-22T08:02:29;27.30;50.50
38464;DHT22;24243;51.956;5.902;2023-06-22T08:05:15;27.30;50.60
38464;DHT22;24243;51.956;5.902;2023-06-22T08:08:01;27.30;50.70
38464;DHT22;24243;51.956;5.902;2023-06-22T08:10:46;27.30;51.30
38464;DHT22;24243;51.956;5.902;2023-06-22T08:13:30;27.30;50.70
38464;DHT22;24243;51.956;5.902;2023-06-22T08:16:14;27.30;50.70
38464;DHT22;24243;51.956;5.902;2023-06-22T08:18:58;27.30;50.60
38464;DHT22;24243;51.956;5.902;2023-06-22T08:21:43;27.30;50.50
38464;DHT22;24243;51.956;5.902;2023-06-22T08:24:27;27.30;50.50
38464;DHT22;24243;51.956;5.902;2023-06-22T08:27:15;27.30;50.40
38464;DHT22;24243;51.956;5.902;2023-06-22T08:30:02;27.30;50.30
38464;DHT22;24243;51.956;5.902;2023-06-22T08:32:46;27.30;50.40
38464;DHT22;24243;51.956;5.902;2023-06-22T08:35:31;27.30;50.40
38464;DHT22;24243;51.956;5.902;2023-06-22T08:38:15;27.40;50.40
38464;DHT22;24243;51.956;5.902;2023-06-22T08:41:02;27.40;50.30
38464;DHT22;24243;51.956;5.902;2023-06-22T08:43:47;27.50;50.20
38464;DHT22;24243;51.956;5.902;2023-06-22T08:46:31;27.50;49.90
38464;DHT22;24243;51.956;5.902;2023-06-22T08:49:16;27.50;49.90
38464;DHT22;24243;51.956;5.902;2023-06-22T08:52:00;27.50;49.80
38464;DHT22;24243;51.956;5.902;2023-06-22T08:54:44;27.50;49.70
38464;DHT22;24243;51.956;5.902;2023-06-22T08:57:28;27.50;49.70
38464;DHT22;24243;51.956;5.902;2023-06-22T09:00:14;27.60;49.80
38464;DHT22;24243;51.956;5.902;2023-06-22T09:03:00;27.60;49.60
38464;DHT22;24243;51.956;5.902;2023-06-22T09:05:44;27.60;49.50
38464;DHT22;24243;51.956;5.902;2023-06-22T09:08:28;27.60;49.40
38464;DHT22;24243;51.956;5.902;2023-06-22T09:11:13;27.60;49.30
38464;DHT22;24243;51.956;5.902;2023-06-22T09:13:57;27.60;49.30
38464;DHT22;24243;51.956;5.902;2023-06-22T09:16:42;27.70;49.40
38464;DHT22;24243;51.956;5.902;2023-06-22T09:19:26;27.70;49.20
38464;DHT22;24243;51.956;5.902;2023-06-22T09:22:10;27.70;49.10
38464;DHT22;24243;51.956;5.902;2023-06-22T09:24:54;27.70;49.00
38464;DHT22;24243;51.956;5.902;2023-06-22T09:27:38;27.80;49.00
38464;DHT22;24243;51.956;5.902;2023-06-22T09:30:23;27.80;48.90
38464;DHT22;24243;51.956;5.902;2023-06-22T09:33:07;27.80;48.80
38464;DHT22;24243;51.956;5.902;2023-06-22T09:35:51;27.80;48.80
38464;DHT22;24243;51.956;5.902;2023-06-22T09:38:36;27.80;49.30
38464;DHT22;24243;51.956;5.902;2023-06-22T09:41:22;27.80;48.60
38464;DHT22;24243;51.956;5.902;2023-06-22T09:44:06;27.80;48.50
38464;DHT22;24243;51.956;5.902;2023-06-22T09:46:51;27.80;48.30
38464;DHT22;24243;51.956;5.902;2023-06-22T09:49:36;27.80;48.20
38464;DHT22;24243;51.956;5.902;2023-06-22T09:52:20;27.80;48.20
38464;DHT22;24243;51.956;5.902;2023-06-22T09:55:05;27.70;48.00
38464;DHT22;24243;51.956;5.902;2023-06-22T09:57:49;27.70;47.80
38464;DHT22;24243;51.956;5.902;2023-06-22T10:00:34;27.70;47.70
38464;DHT22;24243;51.956;5.902;2023-06-22T10:03:18;27.70;47.60
38464;DHT22;24243;51.956;5.902;2023-06-22T10:06:03;27.70;47.60
38464;DHT22;24243;51.956;5.902;2023-06-22T10:08:47;27.70;47.60
38464;DHT22;24243;51.956;5.902;2023-06-22T10:11:32;27.70;47.60
38464;DHT22;24243;51.956;5.902;2023-06-22T10:14:18;27.70;47.60
38464;DHT22;24243;51.956;5.902;2023-06-22T10:17:03;27.70;47.60
38464;DHT22;24243;51.956;5.902;2023-06-22T10:19:48;27.70;47.50
38464;DHT22;24243;51.956;5.902;2023-06-22T10:22:32;27.70;47.40
38464;DHT22;24243;51.956;5.902;2023-06-22T10:25:16;27.60;47.20
38464;DHT22;24243;51.956;5.902;2023-06-22T10:28:00;27.70;47.20
38464;DHT22;24243;51.956;5.902;2023-06-22T10:30:44;27.70;47.20
38464;DHT22;24243;51.956;5.902;2023-06-22T10:33:29;27.60;47.20
38464;DHT22;24243;51.956;5.902;2023-06-22T10:36:13;27.60;47.30
38464;DHT22;24243;51.956;5.902;2023-06-22T10:38:57;27.60;47.30
38464;DHT22;24243;51.956;5.902;2023-06-22T10:41:43;27.60;47.30
38464;DHT22;24243;51.956;5.902;2023-06-22T10:44:28;27.60;47.30
38464;DHT22;24243;51.956;5.902;2023-06-22T10:47:12;27.60;47.40
38464;DHT22;24243;51.956;5.902;2023-06-22T10:49:56;27.60;47.50
38464;DHT22;24243;51.956;5.902;2023-06-22T10:52:41;27.60;47.60
38464;DHT22;24243;51.956;5.902;2023-06-22T10:55:25;27.60;47.70
38464;DHT22;24243;51.956;5.902;2023-06-22T10:58:10;27.60;47.80
38464;DHT22;24243;51.956;5.902;2023-06-22T11:00:54;27.60;47.70
38464;DHT22;24243;51.956;5.902;2023-06-22T11:03:38;27.60;47.70
38464;DHT22;24243;51.956;5.902;2023-06-22T11:06:22;27.60;47.80
38464;DHT22;24243;51.956;5.902;2023-06-22T11:09:06;27.60;47.80
38464;DHT22;24243;51.956;5.902;2023-06-22T11:11:52;27.60;47.70
38464;DHT22;24243;51.956;5.902;2023-06-22T11:14:38;27.60;47.70
38464;DHT22;24243;51.956;5.902;2023-06-22T11:17:23;27.60;47.70
38464;DHT22;24243;51.956;5.902;2023-06-22T11:20:08;27.60;47.70
38464;DHT22;24243;51.956;5.902;2023-06-22T11:22:55;27.60;47.70
38464;DHT22;24243;51.956;5.902;2023-06-22T11:25:39;27.60;47.80
38464;DHT22;24243;51.956;5.902;2023-06-22T11:28:27;27.60;47.80
38464;DHT22;24243;51.956;5.902;2023-06-22T11:31:11;27.60;48.00
38464;DHT22;24243;51.956;5.902;2023-06-22T11:33:55;27.60;48.20
38464;DHT22;24243;51.956;5.902;2023-06-22T11:36:39;27.60;48.20
38464;DHT22;24243;51.956;5.902;2023-06-22T11:39:24;27.50;48.20
38464;DHT22;24243;51.956;5.902;2023-06-22T11:42:08;27.60;48.40
38464;DHT22;24243;51.956;5.902;2023-06-22T11:44:53;27.60;48.60
38464;DHT22;24243;51.956;5.902;2023-06-22T11:47:37;27.60;48.70
38464;DHT22;24243;51.956;5.902;2023-06-22T11:50:22;27.60;48.80
38464;DHT22;24243;51.956;5.902;2023-06-22T11:53:06;27.60;49.00
38464;DHT22;24243;51.956;5.902;2023-06-22T11:55:51;27.60;49.20
38464;DHT22;24243;51.956;5.902;2023-06-22T11:58:35;27.60;49.20
38464;DHT22;24243;51.956;5.902;2023-06-22T12:01:19;27.60;49.20
38464;DHT22;24243;51.956;5.902;2023-06-22T12:04:05;27.60;49.30
38464;DHT22;24243;51.956;5.902;2023-06-22T12:06:49;27.60;49.40
38464;DHT22;24243;51.956;5.902;2023-06-22T12:09:34;27.60;49.50
38464;DHT22;24243;51.956;5.902;2023-06-22T12:12:18;27.60;49.70
38464;DHT22;24243;51.956;5.902;2023-06-22T12:15:03;27.60;49.80
38464;DHT22;24243;51.956;5.902;2023-06-22T12:17:48;27.60;49.90
38464;DHT22;24243;51.956;5.902;2023-06-22T12:20:32;27.60;49.90
38464;DHT22;24243;51.956;5.902;2023-06-22T12:23:16;27.60;50.20
38464;DHT22;24243;51.956;5.902;2023-06-22T12:26:01;27.60;50.40
38464;DHT22;24243;51.956;5.902;2023-06-22T12:28:45;27.60;50.60
38464;DHT22;24243;51.956;5.902;2023-06-22T12:31:29;27.60;50.80
38464;DHT22;24243;51.956;5.902;2023-06-22T12:34:14;27.60;51.00
38464;DHT22;24243;51.956;5.902;2023-06-22T12:36:58;27.60;51.20
38464;DHT22;24243;51.956;5.902;2023-06-22T12:39:43;27.60;51.50
38464;DHT22;24243;51.956;5.902;2023-06-22T12:42:28;27.60;51.80
38464;DHT22;24243;51.956;5.902;2023-06-22T12:45:13;27.60;51.90
38464;DHT22;24243;51.956;5.902;2023-06-22T12:47:57;27.60;52.10
38464;DHT22;24243;51.956;5.902;2023-06-22T12:50:42;27.60;52.20
38464;DHT22;24243;51.956;5.902;2023-06-22T12:53:26;27.60;52.40
38464;DHT22;24243;51.956;5.902;2023-06-22T12:56:11;27.60;52.60
38464;DHT22;24243;51.956;5.902;2023-06-22T12:58:55;27.60;52.70
38464;DHT22;24243;51.956;5.902;2023-06-22T13:01:40;27.60;52.70
38464;DHT22;24243;51.956;5.902;2023-06-22T13:04:24;27.60;52.80
38464;DHT22;24243;51.956;5.902;2023-06-22T13:07:09;27.50;52.70
38464;DHT22;24243;51.956;5.902;2023-06-22T13:09:54;27.60;52.90
38464;DHT22;24243;51.956;5.902;2023-06-22T13:12:38;27.60;52.90
38464;DHT22;24243;51.956;5.902;2023-06-22T13:15:22;27.60;52.80
38464;DHT22;24243;51.956;5.902;2023-06-22T13:18:06;27.50;52.70
38464;DHT22;24243;51.956;5.902;2023-06-22T13:20:51;27.50;52.60
38464;DHT22;24243;51.956;5.902;2023-06-22T13:23:36;27.50;52.60
38464;DHT22;24243;51.956;5.902;2023-06-22T13:26:21;27.50;52.60
38464;DHT22;24243;51.956;5.902;2023-06-22T13:29:06;27.50;52.70
38464;DHT22;24243;51.956;5.902;2023-06-22T13:31:50;27.50;52.60
38464;DHT22;24243;51.956;5.902;2023-06-22T13:34:34;27.40;52.60
38464;DHT22;24243;51.956;5.902;2023-06-22T13:37:18;27.40;52.70
38464;DHT22;24243;51.956;5.902;2023-06-22T13:40:07;27.40;52.70
38464;DHT22;24243;51.956;5.902;2023-06-22T13:42:51;27.40;52.80
38464;DHT22;24243;51.956;5.902;2023-06-22T13:45:36;27.40;52.80
38464;DHT22;24243;51.956;5.902;2023-06-22T13:48:21;27.30;52.90
38464;DHT22;24243;51.956;5.902;2023-06-22T13:51:07;27.30;53.10
38464;DHT22;24243;51.956;5.902;2023-06-22T13:53:51;27.30;53.40
38464;DHT22;24243;51.956;5.902;2023-06-22T13:56:35;27.30;53.60
38464;DHT22;24243;51.956;5.902;2023-06-22T13:59:20;27.30;53.70
38464;DHT22;24243;51.956;5.902;2023-06-22T14:02:05;27.30;53.90
38464;DHT22;24243;51.956;5.902;2023-06-22T14:04:49;27.30;53.90
38464;DHT22;24243;51.956;5.902;2023-06-22T14:07:33;27.30;54.00
38464;DHT22;24243;51.956;5.902;2023-06-22T14:10:18;27.30;54.10
38464;DHT22;24243;51.956;5.902;2023-06-22T14:13:03;27.30;54.10
38464;DHT22;24243;51.956;5.902;2023-06-22T14:15:50;27.30;54.20
38464;DHT22;24243;51.956;5.902;2023-06-22T14:18:36;27.30;54.10
38464;DHT22;24243;51.956;5.902;2023-06-22T14:21:20;27.30;54.20
38464;DHT22;24243;51.956;5.902;2023-06-22T14:24:04;27.20;54.20
38464;DHT22;24243;51.956;5.902;2023-06-22T14:26:49;27.20;54.30
38464;DHT22;24243;51.956;5.902;2023-06-22T14:29:33;27.20;54.40
38464;DHT22;24243;51.956;5.902;2023-06-22T14:32:17;27.20;54.40
38464;DHT22;24243;51.956;5.902;2023-06-22T14:35:02;27.20;54.50
38464;DHT22;24243;51.956;5.902;2023-06-22T14:37:46;27.20;54.50
38464;DHT22;24243;51.956;5.902;2023-06-22T14:40:31;27.20;54.60
38464;DHT22;24243;51.956;5.902;2023-06-22T14:43:16;27.20;54.50
38464;DHT22;24243;51.956;5.902;2023-06-22T14:46:00;27.20;54.60
38464;DHT22;24243;51.956;5.902;2023-06-22T14:48:45;27.20;54.60
38464;DHT22;24243;51.956;5.902;2023-06-22T14:51:30;27.20;54.70
38464;DHT22;24243;51.956;5.902;2023-06-22T14:54:14;27.20;54.60
38464;DHT22;24243;51.956;5.902;2023-06-22T14:56:58;27.10;54.60
38464;DHT22;24243;51.956;5.902;2023-06-22T14:59:43;27.10;54.70
38464;DHT22;24243;51.956;5.902;2023-06-22T15:02:27;27.10;54.70
38464;DHT22;24243;51.956;5.902;2023-06-22T15:05:11;27.10;54.80
38464;DHT22;24243;51.956;5.902;2023-06-22T15:07:56;27.10;54.70
38464;DHT22;24243;51.956;5.902;2023-06-22T15:10:40;27.10;54.70
38464;DHT22;24243;51.956;5.902;2023-06-22T15:13:25;27.10;54.70
38464;DHT22;24243;51.956;5.902;2023-06-22T15:16:10;27.10;54.70
38464;DHT22;24243;51.956;5.902;2023-06-22T15:18:54;27.00;54.60
38464;DHT22;24243;51.956;5.902;2023-06-22T15:21:39;27.00;54.60
38464;DHT22;24243;51.956;5.902;2023-06-22T15:24:11;27.00;54.60
38464;DHT22;24243;51.956;5.902;2023-06-22T15:26:37;27.00;54.50
38464;DHT22;24243;51.956;5.902;2023-06-22T15:29:04;27.00;54.50
38464;DHT22;24243;51.956;5.902;2023-06-22T15:31:30;27.00;54.50
38464;DHT22;24243;51.956;5.902;2023-06-22T15:33:55;27.00;54.50
38464;DHT22;24243;51.956;5.902;2023-06-22T15:36:21;27.00;54.50
38464;DHT22;24243;51.956;5.902;2023-06-22T15:38:47;27.00;54.50
38464;DHT22;24243;51.956;5.902;2023-06-22T15:41:13;27.00;54.60
38464;DHT22;24243;51.956;5.902;2023-06-22T15:43:39;27.00;54.60
38464;DHT22;24243;51.956;5.902;2023-06-22T15:46:05;26.90;54.60
38464;DHT22;24243;51.956;5.902;2023-06-22T15:48:31;26.90;54.70
38464;DHT22;24243;51.956;5.902;2023-06-22T15:50:57;26.90;54.80
38464;DHT22;24243;51.956;5.902;2023-06-22T15:53:23;27.00;54.90
38464;DHT22;24243;51.956;5.902;2023-06-22T15:55:49;26.90;54.90
38464;DHT22;24243;51.956;5.902;2023-06-22T15:58:14;26.90;54.90
38464;DHT22;24243;51.956;5.902;2023-06-22T16:00:42;26.90;55.00
38464;DHT22;24243;51.956;5.902;2023-06-22T16:03:08;26.90;55.10
38464;DHT22;24243;51.956;5.902;2023-06-22T16:05:34;26.90;55.20
38464;DHT22;24243;51.956;5.902;2023-06-22T16:08:00;26.90;55.30
38464;DHT22;24243;51.956;5.902;2023-06-22T16:10:26;26.90;56.00
38464;DHT22;24243;51.956;5.902;2023-06-22T16:12:53;26.90;55.60
38464;DHT22;24243;51.956;5.902;2023-06-22T16:15:18;26.90;55.80
38464;DHT22;24243;51.956;5.902;2023-06-22T16:17:44;26.90;56.00
38464;DHT22;24243;51.956;5.902;2023-06-22T16:20:11;26.90;56.10
38464;DHT22;24243;51.956;5.902;2023-06-22T16:22:37;26.90;56.20
38464;DHT22;24243;51.956;5.902;2023-06-22T16:25:03;26.90;56.20
38464;DHT22;24243;51.956;5.902;2023-06-22T16:27:29;26.90;56.10
38464;DHT22;24243;51.956;5.902;2023-06-22T16:29:57;26.90;56.20
38464;DHT22;24243;51.956;5.902;2023-06-22T16:32:23;26.90;56.20
38464;DHT22;24243;51.956;5.902;2023-06-22T16:34:49;26.90;56.30
38464;DHT22;24243;51.956;5.902;2023-06-22T16:37:15;26.90;56.40
38464;DHT22;24243;51.956;5.902;2023-06-22T16:39:41;26.90;56.40
38464;DHT22;24243;51.956;5.902;2023-06-22T16:42:07;26.90;56.40
38464;DHT22;24243;51.956;5.902;2023-06-22T16:44:33;26.90;56.40
38464;DHT22;24243;51.956;5.902;2023-06-22T16:47:00;26.90;56.40
38464;DHT22;24243;51.956;5.902;2023-06-22T16:49:26;26.90;56.40
38464;DHT22;24243;51.956;5.902;2023-06-22T16:51:52;26.90;56.30
38464;DHT22;24243;51.956;5.902;2023-06-22T16:54:18;26.90;56.20
38464;DHT22;24243;51.956;5.902;2023-06-22T16:56:46;26.90;56.30
38464;DHT22;24243;51.956;5.902;2023-06-22T16:59:12;26.90;56.30
38464;DHT22;24243;51.956;5.902;2023-06-22T17:01:53;26.90;56.20
38464;DHT22;24243;51.956;5.902;2023-06-22T17:04:21;26.90;56.30
38464;DHT22;24243;51.956;5.902;2023-06-22T17:06:59;26.90;56.30
38464;DHT22;24243;51.956;5.902;2023-06-22T17:09:26;26.90;56.40
38464;DHT22;24243;51.956;5.902;2023-06-22T17:11:55;26.90;56.30
38464;DHT22;24243;51.956;5.902;2023-06-22T17:14:22;26.90;56.40
38464;DHT22;24243;51.956;5.902;2023-06-22T17:16:49;26.90;56.40